Time;durP1;ratioP1;P1;durP2;ratioP2;P2;SDS_P1;SDS_P2;PMS_P1;PMS_P2;Temp;Humidity;BMP_temperature;BMP_pressure;BME280_temperature;BME280_humidity;BME280_pressure;Samples;Min_cycle;Max_cycle;Signal;HPM_P1;HPM_P2
2022/04/22 00:00:56;;;;;;;7.57;3.85;;;;;;;;;;5066516;28;20072;-67
2022/04/22 00:03:22;;;;;;;6.05;3.45;;;;;;;;;;5052206;28;20037;-66
2022/04/22 00:05:48;;;;;;;6.25;3.53;;;;;;;;;;5067691;28;20469;-66
2022/04/22 00:08:14;;;;;;;7.55;3.72;;;;;;;;;;5065996;28;20052;-66
2022/04/22 00:11:29;;;;;;;4.88;3.30;;;;;;;;;;5068716;28;20127;-66
2022/04/22 00:13:26;;;;;;;5.65;3.28;;;;;;;;;;5067553;28;20052;-66
2022/04/22 00:15:52;;;;;;;9.25;3.53;;;;;;;;;;5050706;28;20476;-66
2022/04/22 00:18:18;;;;;;;5.90;3.50;;;;;;;;;;5065747;28;20075;-67
2022/04/22 00:20:45;;;;;;;8.18;4.13;;;;;;;;;;5069467;28;20047;-66
2022/04/22 00:23:11;;;;;;;8.00;4.13;;;;;;;;;;5052356;28;20404;-66
2022/04/22 00:25:37;;;;;;;7.80;4.43;;;;;;;;;;5069685;28;20429;-66
2022/04/22 00:28:03;;;;;;;10.73;4.93;;;;;;;;;;5067080;28;20042;-66
2022/04/22 00:30:29;;;;;;;11.27;4.88;;;;;;;;;;5068038;28;20071;-67
2022/04/22 00:32:55;;;;;;;7.00;4.82;;;;;;;;;;5065879;28;20044;-66
2022/04/22 00:35:21;;;;;;;12.35;6.60;;;;;;;;;;5067185;28;20048;-66
2022/04/22 00:37:49;;;;;;;9.65;5.47;;;;;;;;;;5066853;28;20053;-66
2022/04/22 00:40:15;;;;;;;12.85;6.72;;;;;;;;;;5069337;28;20440;-66
2022/04/22 00:42:41;;;;;;;12.68;6.22;;;;;;;;;;5066240;28;20044;-66
2022/04/22 00:45:09;;;;;;;11.20;6.20;;;;;;;;;;5066166;28;20041;-66
2022/04/22 00:47:35;;;;;;;8.80;6.22;;;;;;;;;;5067608;28;20055;-66
2022/04/22 00:50:01;;;;;;;13.88;6.68;;;;;;;;;;5067781;28;20040;-66
2022/04/22 00:52:27;;;;;;;11.00;6.38;;;;;;;;;;5064867;28;20480;-66
2022/04/22 00:54:54;;;;;;;11.13;6.35;;;;;;;;;;5067593;28;20131;-67
2022/04/22 00:57:20;;;;;;;10.32;6.50;;;;;;;;;;5065742;28;20044;-66
2022/04/22 00:59:46;;;;;;;12.27;7.50;;;;;;;;;;5065924;28;20123;-66
2022/04/22 01:02:12;;;;;;;13.52;7.30;;;;;;;;;;5065717;28;20048;-66
2022/04/22 01:10:09;;;;;;;12.93;7.03;;;;;;;;;;5064628;28;20430;-66
2022/04/22 01:12:35;;;;;;;15.38;7.22;;;;;;;;;;5067525;28;20368;-66
2022/04/22 01:15:01;;;;;;;13.07;6.68;;;;;;;;;;5066624;28;20465;-66
2022/04/22 01:17:27;;;;;;;11.68;7.80;;;;;;;;;;5066092;28;20036;-66
2022/04/22 01:19:57;;;;;;;12.10;7.30;;;;;;;;;;5067000;28;20063;-66
2022/04/22 01:22:23;;;;;;;9.73;6.70;;;;;;;;;;5081813;28;20405;-66
2022/04/22 01:24:53;;;;;;;9.73;7.20;;;;;;;;;;5068844;28;20431;-66
2022/04/22 01:27:19;;;;;;;10.77;7.32;;;;;;;;;;5066281;28;20128;-66
2022/04/22 01:29:45;;;;;;;10.73;6.97;;;;;;;;;;5065732;28;20524;-66
2022/04/22 01:32:11;;;;;;;11.38;6.95;;;;;;;;;;5064535;28;20055;-66
2022/04/22 01:34:38;;;;;;;11.50;7.60;;;;;;;;;;5077264;28;20053;-66
2022/04/22 01:37:06;;;;;;;14.18;7.32;;;;;;;;;;5067559;28;20058;-66
2022/04/22 01:39:32;;;;;;;15.27;7.68;;;;;;;;;;5065968;28;20043;-66
2022/04/22 01:41:59;;;;;;;12.90;7.78;;;;;;;;;;5063518;28;20058;-66
2022/04/22 01:44:26;;;;;;;12.98;7.30;;;;;;;;;;5064862;28;20122;-66
2022/04/22 01:46:52;;;;;;;10.93;7.50;;;;;;;;;;5062515;28;20036;-66
2022/04/22 01:49:18;;;;;;;13.85;7.88;;;;;;;;;;5067244;28;20080;-66
2022/04/22 01:51:44;;;;;;;11.63;7.85;;;;;;;;;;5065024;28;20085;-66
2022/04/22 01:54:11;;;;;;;11.90;7.60;;;;;;;;;;5067205;28;20044;-66
2022/04/22 01:56:37;;;;;;;11.57;7.95;;;;;;;;;;5049224;28;20060;-66
2022/04/22 01:59:04;;;;;;;16.88;7.90;;;;;;;;;;5065791;28;20036;-67
2022/04/22 02:01:30;;;;;;;11.73;7.90;;;;;;;;;;5063086;28;20053;-66
2022/04/22 02:03:56;;;;;;;13.68;8.50;;;;;;;;;;5067830;28;20123;-66
2022/04/22 02:06:22;;;;;;;13.80;8.65;;;;;;;;;;5067594;28;20408;-66
2022/04/22 02:08:48;;;;;;;14.13;8.02;;;;;;;;;;5066004;28;20040;-66
2022/04/22 02:11:15;;;;;;;15.18;8.98;;;;;;;;;;5065470;28;20047;-66
2022/04/22 02:13:41;;;;;;;17.52;9.68;;;;;;;;;;5049394;28;20048;-66
2022/04/22 02:16:07;;;;;;;16.00;9.02;;;;;;;;;;5065963;28;20468;-66
2022/04/22 02:18:36;;;;;;;16.27;8.63;;;;;;;;;;5064484;28;20059;-66
2022/04/22 02:21:04;;;;;;;16.63;9.43;;;;;;;;;;5066929;28;20040;-66
2022/04/22 02:23:30;;;;;;;20.35;9.90;;;;;;;;;;5064661;28;20051;-66
2022/04/22 02:25:57;;;;;;;13.45;8.48;;;;;;;;;;5065772;28;20071;-66
2022/04/22 02:28:31;;;;;;;17.60;9.82;;;;;;;;;;5065774;28;20049;-66
2022/04/22 02:30:59;;;;;;;18.95;10.63;;;;;;;;;;5065716;28;20052;-66
2022/04/22 02:33:26;;;;;;;19.98;10.60;;;;;;;;;;5064508;28;20071;-66
2022/04/22 02:35:52;;;;;;;17.75;10.00;;;;;;;;;;5062809;28;20057;-66
2022/04/22 02:38:18;;;;;;;16.95;11.00;;;;;;;;;;5067117;28;20049;-66
2022/04/22 02:46:13;;;;;;;18.45;10.73;;;;;;;;;;5064821;28;20078;-66
2022/04/22 02:48:39;;;;;;;18.85;11.02;;;;;;;;;;5065049;28;20036;-66
2022/04/22 02:51:05;;;;;;;19.20;11.45;;;;;;;;;;5067225;28;20045;-66
2022/04/22 02:53:31;;;;;;;18.92;11.80;;;;;;;;;;5066913;28;20040;-66
2022/04/22 02:55:58;;;;;;;20.20;11.75;;;;;;;;;;5070814;28;20036;-66
2022/04/22 02:58:25;;;;;;;22.00;12.25;;;;;;;;;;5069811;28;20492;-66
2022/04/22 03:00:51;;;;;;;19.48;11.63;;;;;;;;;;5068472;28;20079;-66
2022/04/22 03:03:17;;;;;;;24.63;12.00;;;;;;;;;;5068377;28;20052;-66
2022/04/22 03:05:43;;;;;;;18.10;11.55;;;;;;;;;;5071451;28;20040;-66
2022/04/22 03:08:09;;;;;;;19.75;11.65;;;;;;;;;;5067982;28;20031;-66
2022/04/22 03:10:36;;;;;;;20.77;11.30;;;;;;;;;;5068372;28;20051;-66
2022/04/22 03:13:03;;;;;;;18.50;10.70;;;;;;;;;;5069727;28;20048;-66
2022/04/22 03:15:31;;;;;;;21.38;11.65;;;;;;;;;;5069602;28;20036;-66
2022/04/22 03:17:57;;;;;;;19.98;12.48;;;;;;;;;;5071072;28;20435;-66
2022/04/22 03:20:23;;;;;;;19.40;11.50;;;;;;;;;;5069025;28;20037;-66
2022/04/22 03:22:49;;;;;;;20.65;11.48;;;;;;;;;;5066894;28;20044;-66
2022/04/22 03:25:17;;;;;;;20.15;11.57;;;;;;;;;;5069082;28;20072;-66
2022/04/22 03:27:43;;;;;;;19.65;11.40;;;;;;;;;;5050775;28;20055;-66
2022/04/22 03:30:09;;;;;;;20.38;11.32;;;;;;;;;;5071494;28;20044;-66
2022/04/22 03:32:35;;;;;;;22.05;11.38;;;;;;;;;;5071559;28;20076;-66
2022/04/22 03:35:01;;;;;;;20.35;11.50;;;;;;;;;;5069770;28;20086;-66
2022/04/22 03:37:28;;;;;;;19.48;10.48;;;;;;;;;;5069922;28;20048;-66
2022/04/22 03:39:54;;;;;;;16.50;10.35;;;;;;;;;;5070334;28;20431;-66
2022/04/22 03:42:20;;;;;;;20.60;11.48;;;;;;;;;;5068890;28;20861;-66
2022/04/22 03:44:46;;;;;;;21.75;10.77;;;;;;;;;;5070302;28;20047;-66
2022/04/22 03:47:13;;;;;;;19.88;10.65;;;;;;;;;;5069799;28;20037;-66
2022/04/22 03:49:39;;;;;;;19.88;10.73;;;;;;;;;;5068626;28;20080;-66
2022/04/22 03:52:05;;;;;;;21.02;11.23;;;;;;;;;;5069947;28;20049;-66
2022/04/22 03:54:31;;;;;;;18.00;10.52;;;;;;;;;;5069045;28;20037;-66
2022/04/22 03:59:42;;;;;;;17.30;10.10;;;;;;;;;;5068531;28;20575;-66
2022/04/22 04:02:08;;;;;;;21.60;10.65;;;;;;;;;;5069273;28;20044;-66
2022/04/22 04:04:34;;;;;;;15.90;9.73;;;;;;;;;;5067626;28;20115;-66
2022/04/22 04:07:00;;;;;;;21.08;9.68;;;;;;;;;;5070833;28;20056;-66
2022/04/22 04:17:40;;;;;;;15.15;8.70;;;;;;;;;;5068160;28;20056;-66
2022/04/22 04:25:39;;;;;;;15.88;8.68;;;;;;;;;;5069174;28;20040;-67
2022/04/22 04:28:09;;;;;;;20.05;9.50;;;;;;;;;;5068768;28;20044;-66
2022/04/22 04:30:39;;;;;;;16.15;8.80;;;;;;;;;;5070427;28;21436;-66
2022/04/22 04:33:05;;;;;;;17.58;9.65;;;;;;;;;;5067975;28;20036;-66
2022/04/22 04:35:31;;;;;;;13.30;8.38;;;;;;;;;;5069321;28;20060;-66
2022/04/22 04:37:58;;;;;;;17.60;9.02;;;;;;;;;;5068622;28;20035;-66
2022/04/22 04:40:24;;;;;;;17.17;8.68;;;;;;;;;;5067910;28;20434;-66
2022/04/22 04:42:52;;;;;;;13.82;8.00;;;;;;;;;;5067927;28;20044;-66
2022/04/22 04:45:18;;;;;;;15.25;7.68;;;;;;;;;;5069791;28;20048;-66
2022/04/22 04:47:44;;;;;;;13.48;7.53;;;;;;;;;;5068571;28;20381;-66
2022/04/22 04:50:11;;;;;;;13.82;7.57;;;;;;;;;;5067097;28;20036;-66
2022/04/22 04:52:37;;;;;;;13.82;7.20;;;;;;;;;;5068364;28;20040;-66
2022/04/22 04:55:06;;;;;;;13.38;7.97;;;;;;;;;;5068027;28;20488;-66
2022/04/22 04:57:32;;;;;;;13.18;7.07;;;;;;;;;;5067696;28;20044;-66
2022/04/22 04:59:59;;;;;;;10.82;7.07;;;;;;;;;;5067379;28;20064;-66
2022/04/22 05:02:25;;;;;;;10.20;6.50;;;;;;;;;;5069631;28;20135;-66
2022/04/22 05:04:51;;;;;;;11.60;7.38;;;;;;;;;;5067165;28;20511;-66
2022/04/22 05:07:18;;;;;;;8.68;6.28;;;;;;;;;;5067461;28;20702;-66
2022/04/22 05:09:44;;;;;;;13.35;6.78;;;;;;;;;;5068011;28;20075;-66
2022/04/22 05:12:13;;;;;;;11.80;6.45;;;;;;;;;;5069308;28;20072;-67
2022/04/22 05:14:39;;;;;;;10.75;6.65;;;;;;;;;;5068336;28;20488;-67
2022/04/22 05:17:05;;;;;;;12.80;6.43;;;;;;;;;;5068948;28;20035;-66
2022/04/22 05:19:31;;;;;;;10.82;6.85;;;;;;;;;;5069303;28;20086;-66
2022/04/22 05:21:57;;;;;;;14.35;6.00;;;;;;;;;;5050603;28;20047;-66
2022/04/22 05:24:23;;;;;;;10.70;5.97;;;;;;;;;;5067712;28;20048;-66
2022/04/22 05:26:49;;;;;;;11.57;5.85;;;;;;;;;;5067585;28;20078;-66
2022/04/22 05:34:44;;;;;;;12.10;6.32;;;;;;;;;;5068246;28;20513;-66
2022/04/22 05:37:11;;;;;;;11.38;6.10;;;;;;;;;;5066859;28;20079;-66
2022/04/22 05:39:37;;;;;;;11.80;5.63;;;;;;;;;;5067576;28;20416;-66
2022/04/22 05:42:03;;;;;;;11.63;5.30;;;;;;;;;;5066540;28;20052;-66
2022/04/22 05:44:29;;;;;;;9.38;5.60;;;;;;;;;;5069302;28;20047;-66
2022/04/22 05:46:55;;;;;;;9.23;5.63;;;;;;;;;;5068525;28;20238;-66
2022/04/22 05:49:21;;;;;;;9.10;5.60;;;;;;;;;;5063101;28;20051;-66
2022/04/22 05:51:47;;;;;;;9.70;5.63;;;;;;;;;;5062840;28;20098;-66
2022/04/22 05:54:13;;;;;;;11.90;5.07;;;;;;;;;;5058947;28;20082;-66
2022/04/22 05:56:39;;;;;;;10.00;4.93;;;;;;;;;;5066582;28;20044;-65
2022/04/22 05:59:06;;;;;;;10.27;5.00;;;;;;;;;;5067719;28;20115;-65
2022/04/22 06:01:32;;;;;;;13.07;5.38;;;;;;;;;;5067839;28;20044;-65
2022/04/22 06:03:58;;;;;;;10.45;5.15;;;;;;;;;;5068108;28;20040;-65
2022/04/22 06:06:24;;;;;;;9.40;4.93;;;;;;;;;;5066137;28;20167;-65
2022/04/22 06:11:35;;;;;;;7.05;4.97;;;;;;;;;;5065556;28;20082;-66
2022/04/22 06:14:01;;;;;;;11.45;5.30;;;;;;;;;;5066765;28;20412;-66
2022/04/22 06:16:28;;;;;;;12.40;5.13;;;;;;;;;;5064377;28;20044;-66
2022/04/22 06:18:54;;;;;;;9.88;4.95;;;;;;;;;;5050065;28;20040;-65
2022/04/22 06:21:20;;;;;;;9.52;5.15;;;;;;;;;;5064558;28;20041;-66
2022/04/22 06:23:46;;;;;;;8.93;4.70;;;;;;;;;;5062829;28;20544;-65
2022/04/22 06:26:12;;;;;;;8.85;4.60;;;;;;;;;;5065152;28;20576;-66
2022/04/22 06:28:38;;;;;;;10.70;5.32;;;;;;;;;;5069993;28;20044;-65
2022/04/22 06:31:04;;;;;;;7.88;4.72;;;;;;;;;;5070901;28;20043;-65
2022/04/22 06:33:30;;;;;;;10.48;5.20;;;;;;;;;;5071592;28;20456;-66
2022/04/22 06:35:58;;;;;;;7.72;4.63;;;;;;;;;;5072000;28;20270;-66
2022/04/22 06:38:25;;;;;;;10.88;5.28;;;;;;;;;;5071299;28;20052;-66
2022/04/22 06:46:21;;;;;;;15.05;4.65;;;;;;;;;;5070445;28;20083;-66
2022/04/22 06:48:47;;;;;;;7.55;4.40;;;;;;;;;;5053329;28;20087;-66
2022/04/22 06:51:17;;;;;;;9.98;4.30;;;;;;;;;;5071648;28;20063;-66
2022/04/22 06:53:43;;;;;;;8.27;4.85;;;;;;;;;;5070241;28;20036;-66
2022/04/22 06:56:09;;;;;;;9.52;5.00;;;;;;;;;;5071267;28;20169;-65
2022/04/22 06:58:40;;;;;;;9.30;4.85;;;;;;;;;;5069177;28;20040;-66
2022/04/22 07:01:07;;;;;;;8.13;4.38;;;;;;;;;;5068961;28;20488;-66
2022/04/22 07:03:33;;;;;;;7.80;4.22;;;;;;;;;;5068763;28;20463;-66
2022/04/22 07:05:59;;;;;;;7.63;4.40;;;;;;;;;;5070414;28;20045;-66
2022/04/22 07:08:25;;;;;;;7.55;4.30;;;;;;;;;;5068972;28;20508;-66
2022/04/22 07:10:55;;;;;;;11.38;4.72;;;;;;;;;;5068988;28;20127;-66
2022/04/22 07:13:21;;;;;;;6.55;4.00;;;;;;;;;;5067172;28;20068;-66
2022/04/22 07:15:49;;;;;;;8.23;4.35;;;;;;;;;;5069547;28;20040;-66
2022/04/22 07:18:15;;;;;;;8.80;4.25;;;;;;;;;;5069999;28;20094;-66
2022/04/22 07:20:42;;;;;;;7.40;4.60;;;;;;;;;;5078165;28;20558;-66
2022/04/22 07:23:10;;;;;;;8.02;4.22;;;;;;;;;;5068846;28;20040;-66
2022/04/22 07:25:36;;;;;;;9.00;4.68;;;;;;;;;;5068426;28;20076;-66
2022/04/22 07:28:04;;;;;;;9.82;4.32;;;;;;;;;;5070188;28;20127;-66
2022/04/22 07:30:30;;;;;;;6.13;3.78;;;;;;;;;;5064866;28;20055;-66
2022/04/22 07:32:56;;;;;;;9.27;4.15;;;;;;;;;;5065495;28;20079;-66
2022/04/22 07:35:23;;;;;;;6.40;3.95;;;;;;;;;;5081666;28;20052;-66
2022/04/22 07:37:50;;;;;;;7.80;4.40;;;;;;;;;;5063613;28;20072;-66
2022/04/22 07:40:19;;;;;;;6.60;3.90;;;;;;;;;;5068636;28;20063;-66
2022/04/22 07:48:20;;;;;;;7.10;4.03;;;;;;;;;;5069390;28;20508;-66
2022/04/22 07:50:47;;;;;;;8.50;3.97;;;;;;;;;;5064155;28;20040;-67
2022/04/22 07:53:20;;;;;;;7.70;3.97;;;;;;;;;;5052287;28;20044;-66
2022/04/22 07:55:46;;;;;;;7.38;4.22;;;;;;;;;;5069128;28;20052;-66
2022/04/22 07:58:16;;;;;;;7.25;3.88;;;;;;;;;;5068117;28;20055;-66
2022/04/22 08:00:46;;;;;;;6.80;4.00;;;;;;;;;;5070699;28;20060;-66
2022/04/22 08:03:13;;;;;;;9.55;3.72;;;;;;;;;;5066537;28;20052;-66
2022/04/22 08:05:39;;;;;;;6.80;4.10;;;;;;;;;;5065064;28;20153;-66
2022/04/22 08:08:06;;;;;;;6.93;3.35;;;;;;;;;;5082391;28;20040;-66
2022/04/22 08:10:33;;;;;;;9.57;3.42;;;;;;;;;;5065962;28;20048;-67
2022/04/22 08:12:59;;;;;;;6.00;3.40;;;;;;;;;;5069376;28;20574;-67
2022/04/22 08:15:25;;;;;;;7.90;3.83;;;;;;;;;;5048857;28;20036;-66
2022/04/22 08:17:51;;;;;;;6.47;3.47;;;;;;;;;;5067238;28;20114;-66
2022/04/22 08:20:17;;;;;;;5.05;3.75;;;;;;;;;;5065602;28;20392;-67
2022/04/22 08:22:46;;;;;;;5.28;3.45;;;;;;;;;;5064575;28;20051;-66
2022/04/22 08:25:15;;;;;;;6.78;3.80;;;;;;;;;;5080107;28;20495;-67
2022/04/22 08:27:41;;;;;;;6.32;3.40;;;;;;;;;;5068399;28;20044;-67
2022/04/22 08:30:08;;;;;;;8.50;3.90;;;;;;;;;;5064405;28;20044;-67
2022/04/22 08:32:34;;;;;;;6.90;3.53;;;;;;;;;;5069042;28;20135;-67
2022/04/22 08:35:01;;;;;;;8.35;3.42;;;;;;;;;;5068026;28;20088;-67
2022/04/22 08:37:27;;;;;;;5.35;3.22;;;;;;;;;;5067534;28;20044;-67
2022/04/22 08:39:55;;;;;;;5.07;3.60;;;;;;;;;;5067402;28;20041;-67
2022/04/22 08:42:25;;;;;;;7.20;3.30;;;;;;;;;;5066378;28;20062;-67
2022/04/22 08:44:54;;;;;;;5.05;3.25;;;;;;;;;;5084243;28;20036;-66
2022/04/22 08:50:19;;;;;;;6.53;3.20;;;;;;;;;;5065583;28;20065;-66
2022/04/22 08:52:50;;;;;;;5.85;3.10;;;;;;;;;;5067792;28;20394;-67
2022/04/22 08:55:18;;;;;;;6.93;3.15;;;;;;;;;;5069016;28;20554;-67
2022/04/22 08:57:44;;;;;;;6.82;2.88;;;;;;;;;;5067782;28;20489;-67
2022/04/22 09:00:10;;;;;;;5.15;2.83;;;;;;;;;;5067083;28;20040;-66
2022/04/22 09:02:37;;;;;;;6.18;3.10;;;;;;;;;;5066211;28;20052;-67
2022/04/22 09:05:03;;;;;;;7.50;3.08;;;;;;;;;;5065188;28;20143;-67
2022/04/22 09:07:32;;;;;;;4.75;2.70;;;;;;;;;;5063429;28;20477;-67
2022/04/22 09:09:58;;;;;;;7.20;2.97;;;;;;;;;;5063258;28;20048;-67
2022/04/22 09:12:25;;;;;;;5.15;2.55;;;;;;;;;;5063857;28;20055;-67
2022/04/22 09:14:55;;;;;;;6.93;2.83;;;;;;;;;;5060438;28;20050;-67
2022/04/22 09:17:24;;;;;;;3.67;2.70;;;;;;;;;;5062721;28;20064;-68
2022/04/22 09:19:51;;;;;;;4.82;2.22;;;;;;;;;;5058483;28;20044;-68
2022/04/22 09:22:27;;;;;;;3.80;2.40;;;;;;;;;;5062169;28;20059;-68
2022/04/22 09:24:54;;;;;;;4.05;2.50;;;;;;;;;;5045596;28;20036;-70
2022/04/22 09:27:30;;;;;;;4.53;2.15;;;;;;;;;;5061542;28;20123;-70
2022/04/22 09:29:56;;;;;;;;;;;;;;;;;;5061552;28;20080;-68
2022/04/22 09:32:26;;;;;;;3.10;2.13;;;;;;;;;;5063781;28;19920;-70
2022/04/22 09:34:53;;;;;;;5.60;2.03;;;;;;;;;;5061232;28;20051;-70
2022/04/22 09:42:51;;;;;;;3.60;2.35;;;;;;;;;;5064108;28;20432;-70
2022/04/22 09:45:17;;;;;;;4.05;2.10;;;;;;;;;;5064226;28;20067;-71
2022/04/22 09:47:43;;;;;;;6.10;2.13;;;;;;;;;;5061269;28;20129;-71
2022/04/22 09:50:16;;;;;;;5.13;2.03;;;;;;;;;;5059025;28;20083;-72
2022/04/22 09:52:47;;;;;;;3.60;2.00;;;;;;;;;;5060291;28;20068;-69
2022/04/22 09:55:15;;;;;;;5.25;1.90;;;;;;;;;;5065199;28;20044;-69
2022/04/22 09:57:51;;;;;;;4.35;1.88;;;;;;;;;;5078982;28;20050;-72
2022/04/22 10:00:17;;;;;;;4.30;2.13;;;;;;;;;;5044841;28;20048;-72
2022/04/22 10:02:43;;;;;;;4.40;2.10;;;;;;;;;;5057086;28;20080;-72
2022/04/22 10:05:13;;;;;;;7.00;2.42;;;;;;;;;;5062072;28;20119;-71
2022/04/22 10:07:42;;;;;;;3.40;2.00;;;;;;;;;;5076152;28;20045;-71
2022/04/22 10:10:09;;;;;;;6.43;2.33;;;;;;;;;;5062130;28;20361;-71
2022/04/22 10:12:36;;;;;;;6.47;2.28;;;;;;;;;;5062248;28;20146;-72
2022/04/22 10:15:04;;;;;;;5.82;2.50;;;;;;;;;;5063978;28;20037;-70
2022/04/22 10:17:30;;;;;;;7.28;2.55;;;;;;;;;;5062377;28;20036;-67
2022/04/22 10:19:56;;;;;;;6.78;2.10;;;;;;;;;;5061149;28;20106;-72
2022/04/22 10:22:22;;;;;;;3.20;2.20;;;;;;;;;;5062653;28;20032;-72
2022/04/22 10:24:50;;;;;;;6.32;2.75;;;;;;;;;;5061619;28;20056;-72
2022/04/22 10:27:17;;;;;;;7.28;2.80;;;;;;;;;;5061906;28;20058;-71
2022/04/22 10:29:43;;;;;;;7.63;2.70;;;;;;;;;;5062560;28;20339;-71
2022/04/22 10:32:11;;;;;;;5.22;2.33;;;;;;;;;;5062793;28;20049;-70
2022/04/22 10:34:42;;;;;;;3.33;2.17;;;;;;;;;;5063555;28;20378;-70
2022/04/22 10:37:28;;;;;;;4.38;2.50;;;;;;;;;;5063117;28;20484;-70
2022/04/22 10:39:54;;;;;;;;;;;;;;;;;;5063088;28;20040;-70
2022/04/22 10:42:29;;;;;;;5.05;2.40;;;;;;;;;;5063553;28;20280;-70
2022/04/22 10:47:44;;;;;;;4.60;2.38;;;;;;;;;;5062413;28;20059;-70
2022/04/22 10:50:23;;;;;;;7.63;2.53;;;;;;;;;;5063064;28;20051;-71
2022/04/22 10:53:07;;;;;;;5.22;2.45;;;;;;;;;;5030243;28;20045;-71
2022/04/22 10:55:36;;;;;;;4.70;2.33;;;;;;;;;;5062792;28;20041;-70
2022/04/22 10:58:14;;;;;;;6.13;2.80;;;;;;;;;;5063287;28;20040;-71
2022/04/22 11:00:44;;;;;;;5.53;2.65;;;;;;;;;;5062655;28;20048;-70
2022/04/22 11:03:15;;;;;;;5.88;2.40;;;;;;;;;;5062604;28;20118;-71
2022/04/22 11:05:47;;;;;;;3.95;2.53;;;;;;;;;;5062475;28;20450;-70
2022/04/22 11:08:18;;;;;;;4.65;2.50;;;;;;;;;;5063604;28;20047;-70
2022/04/22 11:10:48;;;;;;;5.07;2.53;;;;;;;;;;5046229;28;20091;-70
2022/04/22 11:13:29;;;;;;;5.53;2.30;;;;;;;;;;5064029;28;20051;-70
2022/04/22 11:15:59;;;;;;;4.68;2.40;;;;;;;;;;5065581;28;20136;-71
2022/04/22 11:18:26;;;;;;;4.25;2.50;;;;;;;;;;5066593;28;20087;-71
2022/04/22 11:21:05;;;;;;;5.28;2.70;;;;;;;;;;5065668;28;20074;-70
2022/04/22 11:23:40;;;;;;;6.15;3.00;;;;;;;;;;5066482;28;20044;-70
2022/04/22 11:26:06;;;;;;;6.55;2.70;;;;;;;;;;5066302;28;20072;-70
2022/04/22 11:28:37;;;;;;;4.70;2.90;;;;;;;;;;5049765;28;20102;-70
2022/04/22 11:31:05;;;;;;;6.05;2.80;;;;;;;;;;5066384;28;20076;-71
2022/04/22 11:33:35;;;;;;;5.78;3.05;;;;;;;;;;5066682;28;20110;-70
2022/04/22 11:36:05;;;;;;;8.25;2.97;;;;;;;;;;5066063;28;20048;-70
2022/04/22 11:38:32;;;;;;;5.88;2.75;;;;;;;;;;5065363;28;20040;-71
2022/04/22 11:40:58;;;;;;;3.95;2.50;;;;;;;;;;5066884;28;20048;-70
2022/04/22 11:43:27;;;;;;;6.55;2.65;;;;;;;;;;5064766;28;20142;-71
2022/04/22 11:45:53;;;;;;;6.90;2.97;;;;;;;;;;5065479;28;20102;-70
2022/04/22 11:48:21;;;;;;;7.25;2.80;;;;;;;;;;5066359;28;20063;-70
2022/04/22 11:50:47;;;;;;;6.70;2.90;;;;;;;;;;5049323;28;20067;-71
2022/04/22 11:53:14;;;;;;;5.03;3.38;;;;;;;;;;5065721;28;20066;-71
2022/04/22 11:55:43;;;;;;;6.55;3.50;;;;;;;;;;5065267;28;20040;-70
2022/04/22 11:58:10;;;;;;;7.22;2.90;;;;;;;;;;5065766;28;20063;-71
2022/04/22 12:06:07;;;;;;;4.50;2.80;;;;;;;;;;5065387;28;20086;-71
2022/04/22 12:08:33;;;;;;;6.05;3.17;;;;;;;;;;5066246;28;20100;-70
2022/04/22 12:11:00;;;;;;;5.57;2.88;;;;;;;;;;5065606;28;20476;-70
2022/04/22 12:13:26;;;;;;;5.57;3.08;;;;;;;;;;5047708;28;20059;-71
2022/04/22 12:15:54;;;;;;;4.70;3.10;;;;;;;;;;5065788;28;20045;-70
2022/04/22 12:18:30;;;;;;;5.07;3.00;;;;;;;;;;5065762;28;20060;-70
2022/04/22 12:20:57;;;;;;;5.30;3.28;;;;;;;;;;5065638;28;20497;-70
2022/04/22 12:23:23;;;;;;;6.28;3.38;;;;;;;;;;5065690;28;20051;-70
2022/04/22 12:25:54;;;;;;;5.00;3.35;;;;;;;;;;5064694;28;20876;-71
2022/04/22 12:28:20;;;;;;;6.72;3.20;;;;;;;;;;5063124;28;20052;-71
2022/04/22 12:30:47;;;;;;;8.23;3.47;;;;;;;;;;5047338;28;20042;-71
2022/04/22 12:33:21;;;;;;;9.07;3.33;;;;;;;;;;5061396;28;20044;-71
2022/04/22 12:35:50;;;;;;;12.32;3.70;;;;;;;;;;5064773;28;20439;-70
2022/04/22 12:38:17;;;;;;;9.07;3.88;;;;;;;;;;5064957;28;20441;-71
2022/04/22 12:40:47;;;;;;;5.57;3.22;;;;;;;;;;5063465;28;20043;-71
2022/04/22 12:43:33;;;;;;;7.82;3.53;;;;;;;;;;5064075;28;20389;-71
2022/04/22 12:52:24;;;;;;;8.68;3.72;;;;;;;;;;5063569;28;20086;-72
2022/04/22 12:54:51;;;;;;;8.55;3.97;;;;;;;;;;5047734;28;20041;-72
2022/04/22 12:57:18;;;;;;;6.80;4.20;;;;;;;;;;5063803;28;20036;-72
2022/04/22 12:59:45;;;;;;;7.95;4.30;;;;;;;;;;5065082;28;20095;-72
2022/04/22 13:02:14;;;;;;;9.68;4.55;;;;;;;;;;5063695;28;20766;-72
2022/04/22 13:04:54;;;;;;;6.43;4.00;;;;;;;;;;5063359;28;20051;-72
2022/04/22 13:07:21;;;;;;;9.73;4.38;;;;;;;;;;5064388;28;20045;-71
2022/04/22 13:09:47;;;;;;;6.30;4.45;;;;;;;;;;5065186;28;20066;-71
2022/04/22 13:12:13;;;;;;;9.10;4.57;;;;;;;;;;5062205;28;20037;-71
2022/04/22 13:14:40;;;;;;;8.88;4.13;;;;;;;;;;5063379;28;20417;-71
2022/04/22 13:17:06;;;;;;;6.68;4.72;;;;;;;;;;5046606;28;20051;-71
2022/04/22 13:19:33;;;;;;;4.82;4.05;;;;;;;;;;5062657;28;20036;-70
2022/04/22 13:21:59;;;;;;;13.82;4.25;;;;;;;;;;5063257;28;20396;-70
2022/04/22 13:24:25;;;;;;;8.68;4.75;;;;;;;;;;5062469;28;20044;-70
2022/04/22 13:26:53;;;;;;;7.78;5.22;;;;;;;;;;5048356;28;20048;-71
2022/04/22 13:29:19;;;;;;;11.25;4.68;;;;;;;;;;5063693;28;20060;-71
2022/04/22 13:31:45;;;;;;;8.43;5.10;;;;;;;;;;5061653;28;20048;-71
2022/04/22 13:34:11;;;;;;;7.65;5.03;;;;;;;;;;5048198;28;20040;-71
2022/04/22 13:36:37;;;;;;;10.13;4.60;;;;;;;;;;5064327;28;20059;-71
2022/04/22 13:39:04;;;;;;;6.78;5.05;;;;;;;;;;5047487;28;20045;-71
2022/04/22 13:41:30;;;;;;;11.57;5.47;;;;;;;;;;5063539;28;20174;-71
2022/04/22 13:43:56;;;;;;;11.75;5.10;;;;;;;;;;5064008;28;20040;-71
2022/04/22 13:54:27;;;;;;;7.15;5.07;;;;;;;;;;5062534;28;20072;-71
2022/04/22 13:56:53;;;;;;;7.72;5.10;;;;;;;;;;5065137;28;20028;-71
2022/04/22 13:59:19;;;;;;;9.07;5.10;;;;;;;;;;5064636;28;20135;-71
2022/04/22 14:01:45;;;;;;;15.13;5.63;;;;;;;;;;5063957;28;20036;-69
2022/04/22 14:04:11;;;;;;;8.00;5.53;;;;;;;;;;5062102;28;20036;-69
2022/04/22 14:06:37;;;;;;;7.38;5.07;;;;;;;;;;5064613;28;20112;-69
2022/04/22 14:09:03;;;;;;;6.65;4.93;;;;;;;;;;5063799;28;20876;-69
2022/04/22 14:11:30;;;;;;;8.23;4.72;;;;;;;;;;5063107;28;20093;-69
2022/04/22 14:13:57;;;;;;;8.73;5.40;;;;;;;;;;5047468;28;20531;-69
2022/04/22 14:16:24;;;;;;;9.10;5.05;;;;;;;;;;5065165;28;20040;-69
2022/04/22 14:18:50;;;;;;;14.43;5.03;;;;;;;;;;5063776;28;20068;-69
2022/04/22 14:21:16;;;;;;;10.50;4.88;;;;;;;;;;5065357;28;20488;-69
2022/04/22 14:23:43;;;;;;;9.00;4.97;;;;;;;;;;5064386;28;20044;-68
2022/04/22 14:26:12;;;;;;;14.95;5.45;;;;;;;;;;5064157;28;20049;-69
2022/04/22 14:28:38;;;;;;;8.23;5.00;;;;;;;;;;5063423;28;20036;-68
2022/04/22 14:31:06;;;;;;;9.57;5.13;;;;;;;;;;5048086;28;20443;-69
2022/04/22 14:33:32;;;;;;;5.70;4.50;;;;;;;;;;5065839;28;20040;-62
2022/04/22 14:35:58;;;;;;;10.15;4.80;;;;;;;;;;5065488;28;20084;-71
2022/04/22 14:38:24;;;;;;;9.65;4.95;;;;;;;;;;5063002;28;20044;-71
2022/04/22 14:40:51;;;;;;;8.80;4.85;;;;;;;;;;5062911;28;20043;-71
2022/04/22 14:43:17;;;;;;;7.15;5.18;;;;;;;;;;5062682;28;20040;-68
2022/04/22 14:45:43;;;;;;;9.25;5.22;;;;;;;;;;5064300;28;20058;-70
2022/04/22 14:48:10;;;;;;;9.68;5.22;;;;;;;;;;5066486;28;20046;-70
2022/04/22 14:50:36;;;;;;;6.38;4.80;;;;;;;;;;5067378;28;20044;-70
2022/04/22 14:53:02;;;;;;;6.97;4.70;;;;;;;;;;5067960;28;20130;-70
2022/04/22 14:55:28;;;;;;;7.40;4.55;;;;;;;;;;5068896;28;20128;-70
2022/04/22 14:57:55;;;;;;;7.13;4.00;;;;;;;;;;5068147;28;20043;-70
2022/04/22 15:00:21;;;;;;;6.70;4.50;;;;;;;;;;5034873;28;20040;-71
2022/04/22 15:02:47;;;;;;;8.02;4.30;;;;;;;;;;5067590;28;20039;-70
2022/04/22 15:05:13;;;;;;;8.30;4.22;;;;;;;;;;5067869;28;20131;-70
2022/04/22 15:07:40;;;;;;;5.55;4.60;;;;;;;;;;5068147;28;20048;-71
2022/04/22 15:10:06;;;;;;;10.77;4.65;;;;;;;;;;5066674;28;20054;-70
2022/04/22 15:12:32;;;;;;;5.88;4.60;;;;;;;;;;5068040;28;20040;-70
2022/04/22 15:14:58;;;;;;;6.95;4.72;;;;;;;;;;5068616;28;20499;-69
2022/04/22 15:25:48;;;;;;;9.02;4.38;;;;;;;;;;5044615;28;20067;-69
2022/04/22 15:28:14;;;;;;;7.40;4.10;;;;;;;;;;5066666;28;20044;-70
2022/04/22 15:30:59;;;;;;;9.32;4.40;;;;;;;;;;5067644;28;20044;-70
2022/04/22 15:33:25;;;;;;;7.38;3.97;;;;;;;;;;5068072;28;20045;-70
2022/04/22 15:35:51;;;;;;;7.63;4.38;;;;;;;;;;5068142;28;20493;-70
2022/04/22 15:38:17;;;;;;;8.35;3.95;;;;;;;;;;5068005;28;20110;-70
2022/04/22 15:40:43;;;;;;;8.77;4.28;;;;;;;;;;5067889;28;20074;-70
2022/04/22 15:43:10;;;;;;;5.80;4.15;;;;;;;;;;5067793;28;20499;-70
2022/04/22 15:45:36;;;;;;;7.05;4.22;;;;;;;;;;5067764;28;20388;-70
2022/04/22 15:48:02;;;;;;;7.38;4.43;;;;;;;;;;5064849;28;20102;-69
2022/04/22 15:50:28;;;;;;;5.13;3.55;;;;;;;;;;5066181;28;20044;-69
2022/04/22 15:52:56;;;;;;;9.25;4.00;;;;;;;;;;5066766;28;20075;-69
2022/04/22 15:55:23;;;;;;;4.82;4.05;;;;;;;;;;5067351;28;20048;-69
2022/04/22 15:57:49;;;;;;;6.38;4.20;;;;;;;;;;5067519;28;20062;-69
2022/04/22 16:00:17;;;;;;;9.15;4.68;;;;;;;;;;5066878;28;20079;-69
2022/04/22 16:02:43;;;;;;;7.53;4.28;;;;;;;;;;5064559;28;20098;-69
2022/04/22 16:05:13;;;;;;;9.20;5.18;;;;;;;;;;5067265;28;20052;-70